Time;durP1;ratioP1;P1;durP2;ratioP2;P2;SDS_P1;SDS_P2;PMS_P1;PMS_P2;Temp;Humidity;BMP_temperature;BMP_pressure;BME280_temperature;BME280_humidity;BME280_pressure;Samples;Min_cycle;Max_cycle;Signal;HPM_P1;HPM_P2
2021/01/29 00:00:57;;;;;;;20.65;12.20;;;;;;;4.49;67.37;98453.31;4463297;32;33201;-80
2021/01/29 00:03:27;;;;;;;16.85;11.38;;;;;;;4.65;66.83;98464.00;4444472;32;36059;-80
2021/01/29 00:05:58;;;;;;;18.17;12.00;;;;;;;4.87;65.98;98456.13;4466293;32;33859;-80
2021/01/29 00:08:26;;;;;;;19.97;11.80;;;;;;;4.70;66.66;98445.50;4463787;32;34427;-81
2021/01/29 00:10:53;;;;;;;17.58;11.75;;;;;;;4.75;66.36;98454.88;4468478;32;34250;-80
2021/01/29 00:13:25;;;;;;;19.85;12.65;;;;;;;4.72;66.56;98457.62;4455898;32;34270;-80
2021/01/29 00:15:52;;;;;;;16.77;11.23;;;;;;;4.43;67.66;98464.03;4471328;32;33756;-81
2021/01/29 00:18:20;;;;;;;17.70;11.60;;;;;;;4.62;66.98;98465.00;4471120;32;33206;-81
2021/01/29 00:20:49;;;;;;;18.55;11.60;;;;;;;4.54;67.26;98466.22;4465810;32;35429;-80
2021/01/29 00:23:17;;;;;;;17.58;11.60;;;;;;;4.33;68.21;98460.09;4470438;32;33529;-81
2021/01/29 00:25:48;;;;;;;19.58;12.20;;;;;;;4.39;68.12;98466.84;4465073;32;34173;-81
2021/01/29 00:28:16;;;;;;;20.08;11.38;;;;;;;4.31;68.41;98465.38;4450540;32;34965;-81
2021/01/29 00:30:44;;;;;;;18.65;11.65;;;;;;;4.36;68.11;98455.56;4470867;32;33161;-81
2021/01/29 00:33:14;;;;;;;15.02;10.27;;;;;;;4.34;68.21;98460.03;4458371;32;33599;-80
2021/01/29 00:35:42;;;;;;;17.00;10.95;;;;;;;4.33;68.39;98458.34;4469571;32;33690;-81
2021/01/29 00:38:10;;;;;;;18.80;11.73;;;;;;;4.36;68.33;98460.81;4463234;32;33496;-81
2021/01/29 00:40:38;;;;;;;14.07;9.65;;;;;;;4.80;66.56;98457.31;4470427;32;33199;-81
2021/01/29 00:43:06;;;;;;;17.42;11.07;;;;;;;4.82;66.46;98448.47;4470406;32;34667;-81
2021/01/29 00:45:36;;;;;;;17.70;10.40;;;;;;;4.63;66.95;98450.16;4460102;32;33757;-81
2021/01/29 00:48:05;;;;;;;16.83;11.40;;;;;;;4.49;67.69;98457.72;4453061;32;34341;-81
2021/01/29 00:50:34;;;;;;;15.32;10.40;;;;;;;4.72;67.05;98452.38;4471194;32;33418;-81
2021/01/29 00:53:02;;;;;;;16.25;10.10;;;;;;;4.63;67.05;98455.38;4458341;32;33657;-80
2021/01/29 00:55:29;;;;;;;15.40;11.02;;;;;;;4.84;66.40;98451.91;4468764;32;33541;-81
2021/01/29 00:57:56;;;;;;;16.58;10.60;;;;;;;4.75;66.78;98448.81;4455906;32;33505;-81
2021/01/29 01:00:26;;;;;;;16.65;10.82;;;;;;;4.75;66.64;98448.81;4468548;32;33569;-80
2021/01/29 01:02:55;;;;;;;17.83;10.60;;;;;;;4.67;67.08;98453.50;4457939;32;33084;-81
2021/01/29 01:05:24;;;;;;;16.05;10.32;;;;;;;4.68;67.16;98457.81;4476249;32;33762;-81
2021/01/29 01:07:52;;;;;;;17.50;11.02;;;;;;;4.66;67.10;98468.34;4455802;32;34415;-80
2021/01/29 01:10:23;;;;;;;17.60;11.57;;;;;;;4.51;67.73;98461.09;4470457;32;33324;-81
2021/01/29 01:12:53;;;;;;;17.10;11.50;;;;;;;4.57;67.50;98460.87;4458566;32;34852;-81
2021/01/29 01:15:25;;;;;;;17.55;12.25;;;;;;;4.69;67.24;98481.28;4458348;32;33751;-81
2021/01/29 01:17:55;;;;;;;15.40;10.70;;;;;;;4.70;67.21;98480.38;4471024;32;33616;-82
2021/01/29 01:20:26;;;;;;;15.75;9.45;;;;;;;4.79;66.88;98476.50;4449807;32;33898;-80
2021/01/29 01:22:55;;;;;;;15.83;10.73;;;;;;;4.88;66.59;98476.97;4455894;32;32815;-81
2021/01/29 01:25:22;;;;;;;16.37;10.73;;;;;;;4.73;67.00;98482.00;4457285;32;34426;-81
2021/01/29 01:27:50;;;;;;;16.95;11.85;;;;;;;4.61;67.45;98478.13;4449608;32;35388;-80
2021/01/29 01:30:23;;;;;;;19.73;11.40;;;;;;;4.77;66.83;98473.97;4472587;32;33690;-80
2021/01/29 01:32:51;;;;;;;17.48;11.35;;;;;;;4.84;66.49;98480.66;4464736;32;34282;-80
2021/01/29 01:35:21;;;;;;;18.45;12.18;;;;;;;4.78;66.82;98483.50;4457696;32;33725;-80
2021/01/29 01:37:50;;;;;;;20.27;13.23;;;;;;;4.79;66.80;98482.59;4456292;32;33970;-81
2021/01/29 01:40:22;;;;;;;17.90;11.40;;;;;;;4.93;66.45;98478.56;4470713;32;34176;-80
2021/01/29 01:42:50;;;;;;;17.00;11.32;;;;;;;4.77;66.84;98480.97;4457753;32;32675;-80
2021/01/29 01:45:26;;;;;;;21.20;12.37;;;;;;;4.91;66.42;98468.16;4469314;32;33522;-80
2021/01/29 01:48:05;;;;;;;17.70;11.65;;;;;;;4.72;67.07;98483.78;4469433;32;34146;-80
2021/01/29 01:50:40;;;;;;;17.80;11.25;;;;;;;4.77;66.93;98473.97;4468976;32;32988;-80
2021/01/29 01:53:18;;;;;;;19.23;12.23;;;;;;;4.84;66.68;98466.72;4456370;32;34298;-80
2021/01/29 01:55:47;;;;;;;24.08;11.73;;;;;;;4.82;66.62;98460.69;4456491;32;33568;-81
2021/01/29 01:58:16;;;;;;;17.23;11.15;;;;;;;4.75;66.97;98462.72;4458141;32;33663;-81
2021/01/29 02:00:47;;;;;;;18.50;12.55;;;;;;;4.78;66.91;98454.75;4455760;32;33308;-80
2021/01/29 02:03:19;;;;;;;20.08;13.57;;;;;;;4.79;66.78;98464.28;4458303;32;33380;-81
2021/01/29 02:05:49;;;;;;;22.40;12.90;;;;;;;4.91;66.47;98472.53;4455628;32;34357;-81
2021/01/29 02:08:18;;;;;;;19.15;13.10;;;;;;;4.78;66.84;98470.44;4471968;32;32406;-81
2021/01/29 02:10:49;;;;;;;22.37;13.85;;;;;;;4.88;66.56;98474.34;4448526;32;33386;-80
2021/01/29 02:13:18;;;;;;;21.95;12.98;;;;;;;4.82;66.72;98465.94;4476445;32;33615;-81
2021/01/29 02:15:52;;;;;;;20.42;12.93;;;;;;;4.78;66.82;98470.44;4462268;32;34710;-80
2021/01/29 02:18:41;;;;;;;23.87;13.82;;;;;;;4.88;66.54;98474.34;4451233;32;35847;-80
2021/01/29 02:21:19;;;;;;;21.27;14.35;;;;;;;4.77;66.81;98487.03;4455777;32;33962;-80
2021/01/29 02:24:20;;;;;;;24.95;15.10;;;;;;;4.76;66.98;98498.41;4471401;32;34598;-80
2021/01/29 02:27:14;;;;;;;27.40;16.10;;;;;;;4.79;66.93;98493.03;4461939;32;33936;-79
2021/01/29 02:30:04;;;;;;;29.20;16.50;;;;;;;4.80;66.90;98496.53;4456420;32;32961;-80
2021/01/29 02:33:03;;;;;;;26.40;15.68;;;;;;;4.80;67.00;98499.16;4462049;32;35099;-81
2021/01/29 02:35:36;;;;;;;27.80;15.63;;;;;;;4.76;67.03;98502.81;4462944;32;33674;-80
2021/01/29 02:38:43;;;;;;;30.98;15.93;;;;;;;4.75;67.17;98508.97;4469756;32;33698;-80
2021/01/29 02:41:13;;;;;;;26.70;14.13;;;;;;;5.07;65.84;98499.75;4468103;32;34536;-80
2021/01/29 02:43:42;;;;;;;;;;;;;;;4.97;66.21;98490.59;4454864;32;35024;-81
2021/01/29 02:46:23;;;;;;;30.55;14.23;;;;;;;5.06;65.77;98485.81;4469484;32;32833;-80
2021/01/29 02:49:04;;;;;;;28.65;15.48;;;;;;;4.92;66.37;98487.31;4458772;32;34542;-80
2021/01/29 02:51:58;;;;;;;25.77;14.87;;;;;;;4.78;66.96;98485.28;4469998;32;33718;-81
2021/01/29 02:55:04;;;;;;;29.10;15.85;;;;;;;4.85;66.87;98481.50;4459266;32;32696;-80
2021/01/29 02:57:37;;;;;;;25.48;15.30;;;;;;;4.75;67.23;98486.25;4450196;32;33210;-80
2021/01/29 03:00:14;;;;;;;32.63;15.77;;;;;;;4.96;66.64;98483.66;4460176;32;33865;-81
2021/01/29 03:03:02;;;;;;;23.27;13.80;;;;;;;4.89;66.78;98490.94;4469025;32;33453;-80
2021/01/29 03:06:08;;;;;;;30.00;14.65;;;;;;;4.80;66.95;98507.00;4455983;32;32946;-80
2021/01/29 03:08:41;;;;;;;29.75;15.75;;;;;;;4.76;67.22;98506.28;4454739;32;35443;-80
2021/01/29 03:11:32;;;;;;;25.67;15.02;;;;;;;4.74;67.30;98510.69;4468416;32;33774;-80
2021/01/29 03:14:27;;;;;;;27.17;15.30;;;;;;;5.14;65.59;98506.44;4448378;32;33527;-80
2021/01/29 03:17:33;;;;;;;29.05;16.65;;;;;;;5.16;65.50;98491.50;4433077;32;33024;-80
2021/01/29 03:20:32;;;;;;;31.05;16.42;;;;;;;5.05;65.79;98486.75;4430819;32;34362;-80
2021/01/29 03:23:38;;;;;;;27.87;15.77;;;;;;;4.74;67.01;98488.94;4432153;32;33740;-80
2021/01/29 03:26:39;;;;;;;31.98;16.42;;;;;;;4.81;66.95;98486.00;4433239;32;33763;-80
2021/01/29 03:29:43;;;;;;;28.87;16.17;;;;;;;4.75;67.15;98503.72;4409773;32;32858;-80
2021/01/29 03:32:28;;;;;;;25.30;14.95;;;;;;;4.63;67.62;98502.44;4429593;32;34412;-81
2021/01/29 03:35:28;;;;;;;28.92;16.87;;;;;;;4.66;67.58;98510.19;4449502;32;34664;-80
2021/01/29 03:38:20;;;;;;;30.55;15.27;;;;;;;4.82;67.27;98515.63;4454897;32;34001;-80
2021/01/29 03:41:27;;;;;;;26.55;15.48;;;;;;;4.81;67.32;98540.06;4445541;32;34151;-81
2021/01/29 03:44:41;;;;;;;30.70;15.52;;;;;;;4.81;67.31;98540.94;4425609;32;34656;-80
2021/01/29 03:47:46;;;;;;;26.65;13.77;;;;;;;4.90;66.90;98544.94;4403406;32;33369;-80
2021/01/29 03:50:52;;;;;;;28.17;15.15;;;;;;;4.94;66.82;98515.13;4463889;32;34143;-81
2021/01/29 03:53:37;;;;;;;;;;;;;;;4.93;66.86;98521.25;4431734;32;32915;-80
2021/01/29 03:56:38;;;;;;;29.87;15.18;;;;;;;4.88;67.06;98492.66;4428837;32;34181;-81
2021/01/29 03:59:29;;;;;;;25.37;14.73;;;;;;;4.81;67.27;98501.69;4459698;32;33431;-80
2021/01/29 04:02:27;;;;;;;27.77;15.18;;;;;;;4.92;67.04;98497.78;4449152;32;33570;-80
2021/01/29 04:05:16;;;;;;;24.02;14.05;;;;;;;4.91;66.98;98507.41;4469777;32;33394;-80
2021/01/29 04:08:46;;;;;;;23.58;13.95;;;;;;;4.91;66.97;98503.94;4468455;32;32309;-80
2021/01/29 04:11:23;;;;;;;24.87;14.65;;;;;;;4.95;66.84;98497.66;4462873;32;34274;-80
2021/01/29 04:14:00;;;;;;;25.20;15.10;;;;;;;5.13;66.19;98491.66;4458578;32;33662;-80
2021/01/29 04:16:40;;;;;;;24.80;14.32;;;;;;;5.02;66.56;98497.31;4462233;32;33222;-80
2021/01/29 04:19:22;;;;;;;21.43;14.40;;;;;;;5.17;66.04;98487.97;4471712;32;34394;-80
2021/01/29 04:22:15;;;;;;;25.12;14.32;;;;;;;4.96;66.61;98499.37;4460865;32;34399;-80
2021/01/29 04:24:53;;;;;;;25.27;15.20;;;;;;;4.75;67.36;98494.13;4451898;32;35303;-81
2021/01/29 04:27:26;;;;;;;27.23;15.23;;;;;;;4.99;66.67;98483.56;4451515;32;35161;-81
2021/01/29 04:30:03;;;;;;;24.60;15.02;;;;;;;5.01;66.54;98479.09;4459350;32;33678;-81
2021/01/29 04:32:36;;;;;;;27.13;16.20;;;;;;;5.06;66.34;98491.06;4463374;32;34934;-80
2021/01/29 04:35:07;;;;;;;26.35;15.80;;;;;;;4.88;66.80;98504.91;4472663;32;33265;-80
2021/01/29 04:37:37;;;;;;;28.05;16.67;;;;;;;4.86;66.96;98499.75;4455591;32;32327;-80
2021/01/29 04:40:23;;;;;;;27.17;16.30;;;;;;;4.71;67.14;98507.37;4457598;32;34326;-79
2021/01/29 04:43:06;;;;;;;22.92;14.10;;;;;;;4.77;67.43;98502.72;4457150;32;33723;-79
2021/01/29 04:45:58;;;;;;;23.65;14.38;;;;;;;4.85;67.07;98508.50;4464514;32;32976;-80
2021/01/29 04:48:52;;;;;;;22.67;13.98;;;;;;;4.86;67.19;98510.19;4475946;32;32918;-80
2021/01/29 04:51:45;;;;;;;29.90;14.80;;;;;;;4.73;67.54;98523.84;4457550;32;33229;-80
2021/01/29 04:54:34;;;;;;;23.02;14.50;;;;;;;4.87;67.39;98522.34;4461982;32;35647;-80
2021/01/29 04:57:10;;;;;;;26.23;15.25;;;;;;;5.02;66.93;98533.09;4469804;32;32874;-80
2021/01/29 04:59:58;;;;;;;29.85;17.20;;;;;;;4.57;68.29;98529.69;4470739;32;33091;-80
2021/01/29 05:02:49;;;;;;;25.98;17.20;;;;;;;4.87;67.63;98538.06;4458412;32;32545;-80
2021/01/29 05:05:47;;;;;;;28.85;15.70;;;;;;;5.10;66.89;98544.97;4461255;32;33217;-80
2021/01/29 05:08:32;;;;;;;29.17;16.23;;;;;;;4.90;67.54;98547.56;4463559;32;32358;-80
2021/01/29 05:11:22;;;;;;;31.35;16.35;;;;;;;5.15;67.04;98552.63;4471668;32;33820;-80
2021/01/29 05:13:50;;;;;;;30.25;15.88;;;;;;;4.78;68.47;98554.13;4458883;32;35648;-80
2021/01/29 05:16:55;;;;;;;30.52;17.95;;;;;;;4.72;68.95;98562.22;4473960;32;33938;-80
2021/01/29 05:19:49;;;;;;;35.40;18.25;;;;;;;4.72;69.10;98570.06;4462024;32;33955;-80
2021/01/29 05:22:41;;;;;;;34.97;20.95;;;;;;;4.68;69.51;98565.84;4447444;32;35138;-80
2021/01/29 05:25:48;;;;;;;32.85;20.35;;;;;;;4.37;70.68;98567.06;4477311;32;31409;-80
2021/01/29 05:28:48;;;;;;;34.78;19.40;;;;;;;4.46;70.73;98573.66;4469586;32;33431;-80
2021/01/29 05:31:32;;;;;;;30.23;18.77;;;;;;;4.47;70.72;98564.09;4471400;32;34118;-80
2021/01/29 05:34:29;;;;;;;31.95;18.77;;;;;;;4.80;69.44;98573.22;4471144;32;33209;-80
2021/01/29 05:37:03;;;;;;;29.73;17.10;;;;;;;4.68;69.78;98584.16;4471503;32;32986;-80
2021/01/29 05:39:30;;;;;;;30.65;18.10;;;;;;;4.59;70.14;98592.34;4473294;32;33333;-80
2021/01/29 05:42:24;;;;;;;31.80;19.50;;;;;;;4.54;70.33;98591.69;4472829;32;33947;-80
2021/01/29 05:45:03;;;;;;;36.83;19.02;;;;;;;4.83;69.45;98591.37;4466141;32;32762;-80
2021/01/29 05:48:03;;;;;;;32.13;19.02;;;;;;;4.79;69.48;98608.09;4459712;32;33276;-81
2021/01/29 05:50:58;;;;;;;30.42;19.08;;;;;;;5.23;67.89;98581.09;4462511;32;34829;-79
2021/01/29 05:54:20;;;;;;;31.42;16.73;;;;;;;5.18;67.62;98581.28;4474250;32;32196;-79
2021/01/29 05:56:54;;;;;;;27.95;17.62;;;;;;;4.86;68.98;98578.19;4442685;32;33258;-81
2021/01/29 05:59:54;;;;;;;28.73;16.45;;;;;;;4.91;68.87;98600.72;4474125;32;33206;-80
2021/01/29 06:02:46;;;;;;;27.00;16.58;;;;;;;5.10;68.34;98601.69;4463707;32;33463;-80
2021/01/29 06:05:26;;;;;;;33.03;16.08;;;;;;;5.27;67.51;98595.72;4472956;32;33394;-81
2021/01/29 06:08:26;;;;;;;26.90;16.77;;;;;;;5.43;67.14;98582.87;4484427;31;34104;-80
2021/01/29 06:11:12;;;;;;;32.92;19.20;;;;;;;5.44;67.32;98579.34;4469956;32;33422;-80
2021/01/29 06:14:17;;;;;;;28.65;16.90;;;;;;;5.23;68.02;98587.19;4474207;32;33583;-80
2021/01/29 06:17:00;;;;;;;26.65;16.20;;;;;;;5.23;67.98;98596.81;4473514;32;34295;-80
2021/01/29 06:19:30;;;;;;;30.23;16.83;;;;;;;5.25;67.80;98587.09;4461384;32;32833;-80
2021/01/29 06:22:19;;;;;;;30.48;16.77;;;;;;;5.30;67.61;98596.47;4461808;32;31369;-80
2021/01/29 06:24:49;;;;;;;31.87;17.65;;;;;;;5.42;67.19;98599.50;4469025;32;34677;-81
2021/01/29 06:27:41;;;;;;;28.48;17.80;;;;;;;5.66;66.38;98601.06;4456014;32;34316;-81
2021/01/29 06:30:56;;;;;;;26.17;17.12;;;;;;;5.72;66.24;98599.97;4469702;32;34182;-81
2021/01/29 06:34:02;;;;;;;24.67;16.70;;;;;;;5.57;66.83;98604.09;4416901;32;33778;-80
2021/01/29 06:36:42;;;;;;;32.08;19.25;;;;;;;5.25;67.70;98621.13;4425403;32;33207;-81
2021/01/29 06:39:24;;;;;;;34.33;20.15;;;;;;;5.27;67.62;98624.53;4462556;32;32290;-81
2021/01/29 06:41:54;;;;;;;39.65;19.98;;;;;;;5.23;67.58;98629.06;4473979;32;34020;-80
2021/01/29 06:44:48;;;;;;;58.67;31.17;;;;;;;5.39;67.12;98624.88;4470398;32;33950;-81
2021/01/29 06:47:46;;;;;;;38.42;22.55;;;;;;;5.30;67.65;98609.56;4451063;32;33028;-81
2021/01/29 06:50:25;;;;;;;40.22;22.75;;;;;;;5.33;67.52;98609.44;4470364;32;33513;-80
2021/01/29 06:53:18;;;;;;;33.00;20.25;;;;;;;5.54;66.97;98606.81;4459884;32;33435;-81
2021/01/29 06:55:49;;;;;;;26.02;15.63;;;;;;;5.45;67.15;98617.69;4471587;32;34235;-81
2021/01/29 06:58:34;;;;;;;26.20;16.45;;;;;;;5.18;67.97;98624.94;4477235;32;34137;-80
2021/01/29 07:01:02;;;;;;;30.73;18.17;;;;;;;5.12;68.49;98626.00;4476466;32;33338;-81
2021/01/29 07:03:56;;;;;;;24.23;15.18;;;;;;;5.38;67.68;98622.34;4459434;32;33907;-81
2021/01/29 07:06:44;;;;;;;24.83;15.52;;;;;;;5.70;66.57;98622.72;4442597;32;33344;-81
2021/01/29 07:09:53;;;;;;;21.75;13.00;;;;;;;5.54;67.03;98627.78;4475550;32;34421;-81
2021/01/29 07:12:54;;;;;;;23.05;13.70;;;;;;;5.74;66.68;98616.44;4457959;32;34447;-81
2021/01/29 07:16:16;;;;;;;19.77;12.25;;;;;;;5.69;67.05;98606.16;4449850;32;33834;-81
2021/01/29 07:19:02;;;;;;;19.63;12.83;;;;;;;5.81;66.59;98603.03;4423458;32;35339;-82
2021/01/29 07:22:11;;;;;;;21.50;14.18;;;;;;;5.58;67.51;98614.50;4451812;32;31859;-81
2021/01/29 07:24:50;;;;;;;18.58;12.90;;;;;;;5.79;67.26;98612.75;4419093;32;32661;-81
2021/01/29 07:27:29;;;;;;;18.92;13.95;;;;;;;5.78;67.34;98613.63;4447949;32;34008;-81
2021/01/29 07:30:06;;;;;;;23.23;14.15;;;;;;;5.84;67.20;98618.62;4448803;32;33741;-81
2021/01/29 07:32:45;;;;;;;20.27;13.45;;;;;;;5.97;66.78;98620.72;4450183;32;33689;-81
2021/01/29 07:35:22;;;;;;;20.33;13.40;;;;;;;6.06;66.49;98612.47;4435962;32;33628;-81
2021/01/29 07:38:27;;;;;;;19.80;13.02;;;;;;;6.10;66.30;98601.78;4447533;32;32998;-81
2021/01/29 07:41:16;;;;;;;21.40;14.02;;;;;;;6.08;66.51;98602.78;4410075;32;33596;-81
2021/01/29 07:44:18;;;;;;;26.05;13.45;;;;;;;6.02;66.77;98597.78;4449428;32;33122;-81
2021/01/29 07:46:59;;;;;;;27.27;13.77;;;;;;;5.76;67.66;98594.53;4434541;32;32987;-81
2021/01/29 07:49:29;;;;;;;19.65;12.75;;;;;;;5.66;68.40;98598.47;4446729;32;33605;-81
2021/01/29 07:52:19;;;;;;;22.25;13.90;;;;;;;6.04;67.26;98607.31;4449180;32;33365;-81
2021/01/29 07:55:05;;;;;;;22.90;12.25;;;;;;;6.22;66.77;98603.00;4437494;32;33815;-80
2021/01/29 07:57:41;;;;;;;18.05;12.37;;;;;;;6.24;66.69;98598.53;4447929;32;35377;-81
2021/01/29 08:00:16;;;;;;;19.25;12.35;;;;;;;6.61;65.17;98587.22;4448575;32;33055;-81
2021/01/29 08:03:22;;;;;;;18.35;12.50;;;;;;;6.53;65.54;98591.09;4448426;32;31366;-81
2021/01/29 08:06:12;;;;;;;21.65;14.18;;;;;;;6.24;66.61;98600.31;4442089;32;32797;-81
2021/01/29 08:09:07;;;;;;;29.12;16.80;;;;;;;6.33;66.41;98598.13;4439282;32;32426;-81
2021/01/29 08:11:37;;;;;;;25.98;15.70;;;;;;;6.62;65.63;98588.06;4449907;32;34385;-81
2021/01/29 08:14:25;;;;;;;32.40;17.15;;;;;;;6.32;66.60;98590.34;4452542;32;33475;-81
2021/01/29 08:17:31;;;;;;;40.12;22.35;;;;;;;6.56;66.08;98589.19;4458643;32;34874;-81
2021/01/29 08:20:30;;;;;;;33.67;17.62;;;;;;;6.58;65.90;98586.50;4450567;32;33525;-81
2021/01/29 08:23:13;;;;;;;33.85;19.30;;;;;;;6.71;65.64;98594.66;4473330;32;32821;-81
2021/01/29 08:26:11;;;;;;;37.00;19.75;;;;;;;6.64;65.95;98586.19;4472599;32;33256;-81
2021/01/29 08:28:45;;;;;;;34.15;18.55;;;;;;;6.64;66.07;98576.56;4472760;32;34146;-81
2021/01/29 08:31:21;;;;;;;42.35;22.25;;;;;;;6.58;66.11;98578.63;4478006;32;34541;-81
2021/01/29 08:34:14;;;;;;;36.70;21.40;;;;;;;6.68;65.88;98579.88;4476769;32;32733;-82
2021/01/29 08:37:25;;;;;;;35.03;20.73;;;;;;;6.80;65.56;98575.84;4461722;32;33670;-82
2021/01/29 08:40:01;;;;;;;28.67;17.80;;;;;;;6.64;65.76;98573.09;4460343;32;34512;-81
2021/01/29 08:42:46;;;;;;;29.52;17.37;;;;;;;6.53;65.92;98563.09;4457551;32;34968;-81
2021/01/29 08:45:19;;;;;;;24.05;15.85;;;;;;;6.76;65.41;98572.50;4473066;32;35294;-81
2021/01/29 08:48:05;;;;;;;21.50;14.95;;;;;;;6.65;65.67;98574.81;4456226;32;35648;-81
2021/01/29 08:50:41;;;;;;;24.25;16.77;;;;;;;7.01;64.59;98579.19;4471296;32;34677;-81
2021/01/29 08:53:39;;;;;;;26.02;18.60;;;;;;;6.77;65.50;98576.84;4458546;32;33247;-82
2021/01/29 08:56:16;;;;;;;23.65;16.00;;;;;;;7.17;63.92;98570.50;4463971;32;32903;-82
2021/01/29 08:58:52;;;;;;;23.70;16.37;;;;;;;7.20;63.26;98556.38;4470125;32;33644;-81
2021/01/29 09:01:44;;;;;;;23.38;15.38;;;;;;;6.80;64.94;98558.34;4461998;32;33840;-82
2021/01/29 09:04:37;;;;;;;22.23;15.68;;;;;;;6.99;64.30;98544.31;4463188;32;32942;-81
2021/01/29 09:07:07;;;;;;;25.37;15.93;;;;;;;6.77;65.56;98545.34;4472021;32;33941;-82
2021/01/29 09:09:36;;;;;;;24.83;14.82;;;;;;;6.78;65.65;98533.94;4466509;32;34214;-81
2021/01/29 09:12:14;;;;;;;24.90;14.48;;;;;;;7.00;64.47;98519.78;4462776;32;34362;-82
2021/01/29 09:14:49;;;;;;;20.58;14.75;;;;;;;6.99;64.71;98510.22;4473962;32;34422;-81
2021/01/29 09:17:21;;;;;;;25.77;15.80;;;;;;;6.66;66.42;98506.53;4464163;32;32929;-81
2021/01/29 09:20:05;;;;;;;24.65;17.42;;;;;;;6.21;68.38;98498.22;4457568;32;33674;-81
2021/01/29 09:22:37;;;;;;;25.60;16.08;;;;;;;6.77;66.65;98487.62;4461201;32;33324;-81
2021/01/29 09:25:06;;;;;;;;;;;;;;;6.81;66.28;98481.31;4474815;31;31807;-81
2021/01/29 09:28:04;;;;;;;21.45;15.10;;;;;;;6.89;65.55;98476.53;4470444;32;33246;-81
2021/01/29 09:30:38;;;;;;;23.38;14.57;;;;;;;6.49;67.32;98479.41;4470785;32;34787;-82
2021/01/29 09:33:27;;;;;;;34.35;20.52;;;;;;;6.21;67.88;98483.34;4467293;32;33123;-81
2021/01/29 09:36:01;;;;;;;32.70;20.20;;;;;;;5.81;70.83;98495.62;4477338;32;34231;-81
2021/01/29 09:38:31;;;;;;;32.95;19.98;;;;;;;5.79;71.27;98500.09;4458216;32;32796;-82
2021/01/29 09:41:04;;;;;;;32.22;20.20;;;;;;;5.97;70.25;98494.97;4461903;32;34402;-81
2021/01/29 09:43:38;;;;;;;31.73;19.17;;;;;;;6.29;69.07;98502.19;4477904;32;33389;-82
2021/01/29 09:46:06;;;;;;;27.10;16.77;;;;;;;6.86;67.19;98484.56;4462935;32;33464;-81
2021/01/29 09:48:36;;;;;;;28.73;18.65;;;;;;;7.05;66.05;98478.41;4460514;32;33670;-82
2021/01/29 09:51:10;;;;;;;25.20;17.08;;;;;;;6.77;67.45;98486.78;4458230;32;33576;-81
2021/01/29 09:53:53;;;;;;;24.15;16.55;;;;;;;7.28;64.67;98472.81;4465362;32;34471;-83
2021/01/29 09:56:23;;;;;;;20.42;14.50;;;;;;;6.81;66.57;98470.81;4453523;32;33965;-82
2021/01/29 09:58:56;;;;;;;23.98;16.05;;;;;;;7.11;65.46;98459.69;4469702;32;34255;-82
2021/01/29 10:01:25;;;;;;;30.83;17.80;;;;;;;7.29;63.76;98458.75;4468798;32;33728;-82
2021/01/29 10:03:56;;;;;;;28.05;17.50;;;;;;;6.75;66.45;98452.78;4470634;32;33821;-82
2021/01/29 10:06:35;;;;;;;29.90;19.02;;;;;;;6.74;67.00;98450.19;4469553;32;33667;-82
2021/01/29 10:09:12;;;;;;;29.12;18.08;;;;;;;7.02;66.31;98452.28;4450576;32;33622;-82
2021/01/29 10:11:44;;;;;;;33.78;18.92;;;;;;;7.24;65.79;98444.19;4470099;32;33534;-83
2021/01/29 10:14:13;;;;;;;28.23;18.00;;;;;;;7.61;64.42;98435.22;4469867;32;33540;-82
2021/01/29 10:16:55;;;;;;;26.08;16.17;;;;;;;7.60;64.50;98418.63;4446207;32;34851;-82
2021/01/29 10:19:23;;;;;;;;;;;;;;;7.41;65.88;98421.38;4469363;32;34827;-82
2021/01/29 10:21:57;;;;;;;22.98;15.52;;;;;;;7.39;66.38;98422.38;4467895;32;33633;-82
2021/01/29 10:24:40;;;;;;;22.95;16.35;;;;;;;7.06;67.61;98427.59;4468687;32;34244;-82
2021/01/29 10:27:21;;;;;;;27.15;17.15;;;;;;;7.11;67.89;98422.94;4474317;32;33413;-82
2021/01/29 10:29:59;;;;;;;24.12;16.70;;;;;;;6.90;67.58;98436.25;4460499;32;33310;-82
2021/01/29 10:32:32;;;;;;;32.30;19.05;;;;;;;7.14;66.85;98439.41;4470762;32;33611;-82
2021/01/29 10:35:26;;;;;;;33.00;20.23;;;;;;;7.74;65.08;98423.13;4459764;32;33675;-83
2021/01/29 10:37:59;;;;;;;31.98;21.02;;;;;;;7.89;65.80;98422.28;4469263;32;34432;-83
2021/01/29 10:40:31;;;;;;;33.28;19.77;;;;;;;7.89;65.70;98408.31;4472900;32;34315;-82
2021/01/29 10:43:05;;;;;;;35.33;22.52;;;;;;;7.88;64.95;98404.84;4463775;32;33314;-83
2021/01/29 10:45:34;;;;;;;29.30;19.12;;;;;;;7.32;67.20;98411.34;4476027;32;33790;-83
2021/01/29 10:48:10;;;;;;;28.52;18.73;;;;;;;7.50;66.94;98427.03;4471541;32;32635;-83
2021/01/29 10:50:46;;;;;;;33.10;21.17;;;;;;;7.82;66.05;98415.66;4461249;32;33652;-82
2021/01/29 10:53:18;;;;;;;31.30;21.00;;;;;;;7.59;66.55;98413.44;4458540;32;34958;-83
2021/01/29 10:55:57;;;;;;;32.20;21.00;;;;;;;7.61;66.64;98416.84;4470758;32;33854;-83
2021/01/29 10:58:41;;;;;;;35.08;22.80;;;;;;;7.68;66.80;98426.06;4469352;32;34354;-83
2021/01/29 11:01:20;;;;;;;45.15;24.25;;;;;;;7.78;66.81;98429.88;4470780;32;33231;-83
2021/01/29 11:04:10;;;;;;;33.17;21.27;;;;;;;8.29;65.10;98422.69;4471967;32;33238;-82
2021/01/29 11:06:45;;;;;;;28.98;18.55;;;;;;;7.35;68.79;98420.84;4470327;32;33867;-82
2021/01/29 11:09:23;;;;;;;28.77;19.25;;;;;;;6.87;70.46;98425.91;4470351;32;33524;-82
2021/01/29 11:12:13;;;;;;;29.45;17.83;;;;;;;6.98;71.07;98424.50;4462824;32;34269;-82
2021/01/29 11:14:46;;;;;;;21.27;15.77;;;;;;;6.87;71.52;98410.16;4463508;32;33562;-82
2021/01/29 11:17:16;;;;;;;20.80;14.45;;;;;;;7.04;70.13;98411.94;4464967;32;35454;-82
2021/01/29 11:19:46;;;;;;;19.02;13.85;;;;;;;7.50;68.67;98400.78;4462469;32;33982;-82
2021/01/29 11:22:30;;;;;;;20.52;14.35;;;;;;;7.45;68.34;98395.78;4460037;32;33121;-82
2021/01/29 11:25:02;;;;;;;21.58;14.55;;;;;;;7.40;68.87;98385.50;4477933;32;35051;-83
2021/01/29 11:27:35;;;;;;;24.45;16.15;;;;;;;7.59;68.33;98390.63;4472482;32;33719;-82
2021/01/29 11:30:12;;;;;;;22.95;16.25;;;;;;;7.60;68.62;98370.50;4459660;32;33591;-82
2021/01/29 11:32:41;;;;;;;24.60;15.20;;;;;;;7.57;68.60;98365.38;4449398;32;33750;-82
2021/01/29 11:35:43;;;;;;;23.67;15.80;;;;;;;7.63;68.86;98363.25;4450226;32;34467;-82
2021/01/29 11:38:30;;;;;;;22.25;15.93;;;;;;;8.19;67.09;98356.63;4479048;32;34466;-83
2021/01/29 11:41:09;;;;;;;27.23;16.27;;;;;;;7.62;68.88;98366.84;4473969;32;33649;-82
2021/01/29 11:43:43;;;;;;;24.17;16.20;;;;;;;7.77;68.28;98365.13;4463646;32;35692;-82
2021/01/29 11:46:22;;;;;;;22.58;15.65;;;;;;;8.04;67.75;98367.19;4470844;32;34334;-82
2021/01/29 11:48:56;;;;;;;25.67;16.83;;;;;;;8.63;65.62;98352.41;4474526;32;33603;-82
2021/01/29 11:51:29;;;;;;;19.92;15.40;;;;;;;8.45;66.27;98344.66;4464298;32;33709;-82
2021/01/29 11:54:00;;;;;;;28.60;17.92;;;;;;;8.63;65.93;98355.88;4458538;32;34109;-82
2021/01/29 11:56:38;;;;;;;23.08;17.83;;;;;;;8.48;66.03;98358.56;4460929;32;35225;-82
2021/01/29 11:59:27;;;;;;;24.70;18.52;;;;;;;8.33;67.10;98358.47;4463857;32;33632;-82
2021/01/29 12:02:13;;;;;;;32.10;18.87;;;;;;;8.29;67.26;98351.69;4474721;32;34267;-82
2021/01/29 12:04:53;;;;;;;26.80;17.90;;;;;;;8.02;68.46;98363.78;4464323;32;32796;-82
2021/01/29 12:08:03;;;;;;;32.47;20.92;;;;;;;8.25;67.74;98344.91;4472669;32;33848;-82
2021/01/29 12:10:46;;;;;;;27.10;19.33;;;;;;;8.34;67.45;98341.75;4457894;32;33721;-82
2021/01/29 12:13:17;;;;;;;29.40;20.45;;;;;;;8.19;68.19;98340.00;4468662;32;35583;-82
2021/01/29 12:15:49;;;;;;;33.35;22.80;;;;;;;8.55;67.01;98336.22;4466406;32;34006;-82
2021/01/29 12:18:17;;;;;;;35.15;23.55;;;;;;;8.62;66.70;98329.66;4464989;32;34677;-82
2021/01/29 12:20:45;;;;;;;32.72;22.17;;;;;;;8.58;67.07;98325.50;4461113;32;33797;-81
2021/01/29 12:23:14;;;;;;;29.70;20.65;;;;;;;8.85;66.13;98318.59;4459189;32;32247;-81
2021/01/29 12:26:03;;;;;;;29.67;20.92;;;;;;;9.00;65.58;98318.63;4461333;32;33470;-81
2021/01/29 12:28:58;;;;;;;49.13;31.33;;;;;;;8.79;66.37;98329.50;4479840;32;33649;-81
2021/01/29 12:31:35;;;;;;;37.88;24.35;;;;;;;9.16;65.19;98317.59;4471249;32;34666;-81
2021/01/29 12:34:08;;;;;;;36.10;23.45;;;;;;;9.07;65.47;98307.63;4469616;32;33525;-81